x

Capers Nearshore (cap 2) (41029) Weather Station

2:08am - Mon 5th Dec 2016 All times are EST. -5 hours from GMT.

  • Wind
    13mph, 18mph gusts
  • Sea Temp 62°f
  • Air Temp 67°f
  • Sea Pressure 1014.3mb
  • Capers Nearshore (cap 2)
  • Capers Nearshore (cap 2)

More Historic Weather Station data

Upgrade to MSW Pro to gain access to the past 30 days of data for over 8000 Wavebouys and Weather Stations around the globe.

Join Pro

Comparision Forecast

View Surf forecast
   
Mon 12/05 2:08am 13 18 mph 1014.3mb 62f 67f
1:08am 13 18 mph 1014.6mb 62f 67f
12:08am 13 18 mph 1015.3mb 62f 67f
Sun 12/04 11:08pm 11 16 mph 1016.4mb 62f 67f
10:08pm 11 16 mph 1017.1mb 62f 67f
9:08pm 9 13 mph 1017.3mb 62f 66f
8:08pm 9 13 mph 1017.4mb 62f 65f
7:08pm 16 22 mph 1017.6mb 61f 61f
6:08pm 22 31 mph 1018.1mb 61f 60f
5:08pm 22 31 mph 1018.9mb 61f 59f
4:08pm 22 31 mph 1019mb 61f 59f
3:08pm 20 27 mph 1019.6mb 62f 59f
2:08pm 20 27 mph 1019.9mb 62f 59f
1:08pm 20 27 mph 1020.1mb 62f 58f
12:08pm 20 27 mph 1021.8mb 62f 58f
11:08am 20 27 mph 1022.8mb 62f 58f
10:08am 22 29 mph 1022.6mb 62f 57f
9:08am 20 27 mph 1022.5mb 62f 55f
8:08am 20 27 mph 1022mb 62f 54f
7:08am 16 20 mph 1023.2mb 62f 52f
6:08am 13 18 mph 1022.8mb 62f 53f
5:08am 13 18 mph 1022.9mb 62f 53f
4:08am 11 16 mph 1023mb 62f 53f
3:08am 13 16 mph 1023mb 62f 56f
2:08am 11 16 mph 1023mb 62f 55f
1:08am 11 16 mph 1023.1mb 62f 55f
12:08am 11 16 mph 1023.4mb 62f 54f
Sat 12/03 11:08pm 11 16 mph 1024.7mb 62f 53f
10:08pm 11 13 mph 1025.1mb 61f 54f
9:08pm 11 16 mph 1024.5mb 61f 54f
8:08pm 13 16 mph 1024.2mb 61f 54f
7:08pm 11 13 mph 1023.9mb 61f 54f
6:08pm 7 11 mph 1023.5mb 61f 54f
5:08pm 7 9 mph 1023.6mb 62f 53f
4:08pm 4 11 mph 1023.4mb 62f 54f
3:08pm 9 16 mph 1023.2mb 62f 53f
2:08pm 11 16 mph 1023.3mb 62f 53f
1:08pm 16 22 mph 1023.6mb 62f 53f
12:08pm 16 22 mph 1023.8mb 62f 53f
11:08am 18 22 mph 1025.1mb 62f 53f
10:08am 20 27 mph 1024.8mb 62f 53f
9:08am 20 29 mph 1024.7mb 62f 53f
8:08am 20 27 mph 1024mb 62f 52f
7:08am 16 20 mph 1023.9mb 62f 51f
6:08am 11 16 mph 1023.4mb 62f 52f
5:08am 11 13 mph 1022.6mb 62f 53f
4:08am 11 13 mph 1022.1mb 62f 55f
3:08am 11 13 mph 1022mb 62f 54f
2:08am 9 11 mph 1023mb 62f 54f
1:08am 9 13 mph 1023mb 62f 56f
12:08am 7
mph
1022.1mb 63f 56f
Fri 12/02 11:08pm 7 9 mph 1022.2mb 63f 56f
10:08pm 9 11 mph 1022.9mb 63f 56f
8:08pm 9 13 mph 1022mb 63f 58f
7:08pm 9 13 mph 1021.6mb 63f 58f
6:08pm 13 18 mph 1021.3mb 63f 58f
5:08pm 16 20 mph 1020.7mb 63f 58f
4:08pm 13 18 mph 1020.1mb 63f 59f
3:08pm 7 11 mph 1020.1mb 63f 59f
2:08pm 4 7 mph 1020.1mb 63f 57f
1:08pm 9 11 mph 1020.6mb 63f 56f
12:08pm 13 18 mph 1020.8mb 63f 55f
11:08am 18 22 mph 1020.8mb 63f 54f
10:08am 18 22 mph 1021.2mb 63f 52f
9:08am 13 18 mph 1020.8mb 63f 49f
8:08am 9 11 mph 1020.2mb 63f 48f
7:08am 13 16 mph 1019.3mb 63f 50f
6:08am 13 18 mph 1018.6mb 63f 50f
5:08am 13 18 mph 1017.8mb 63f 50f
4:08am 16 20 mph 1017.4mb 63f 52f
3:08am 16 20 mph 1017.2mb 63f 53f
2:08am 16 20 mph 1016.8mb 63f 55f
1:08am 16 22 mph 1016.3mb 63f 56f
12:08am 18 25 mph 1016.2mb 63f 57f
Thu 12/01 11:08pm 16 22 mph 1015.9mb 63f 58f
10:08pm 16 20 mph 1015.9mb 63f 59f
9:08pm 13 18 mph 1015.6mb 63f 60f
8:08pm 16 20 mph 1014.8mb 63f 61f
7:08pm 11 16 mph 1014.6mb 63f 62f
6:08pm 11 16 mph 1013.7mb 63f 63f
5:08pm 13 16 mph 1013.1mb 63f 65f
4:08pm 13 18 mph 1012.4mb 63f 66f
3:08pm 18 25 mph 1012.3mb 63f 63f
2:08pm 18 22 mph 1012.4mb 63f 62f
12:08pm 16 20 mph 1013.6mb 63f 62f
11:08am 13 18 mph 1014.1mb 63f 61f
10:08am 13 20 mph 1014.5mb 63f 62f
9:08am 13 18 mph 1013.6mb 63f 62f